Terminal Aerodrome Forecast
Issued by NWS Boise, ID

Home | Current Version | Previous Version | Text Only | Print | Product List | Glossary On
Versions: 1 2 3 4 5 6 7 8 9 10 11 12 13 14 15 16 17 18 19 20 21 22 23 24 25 26 27 28
000
FTUS45 KBOI 170534
TAFBOI
TAF
KBOI 170534Z 1706/1806 VRB03KT 4SM BR VCFG SCT005
      TEMPO 1706/1710 1/2SM FG OVC004
     FM171000 13007KT 4SM BR BKN005
     FM171400 13009KT P6SM BKN200
     FM172000 14012KT P6SM OVC100=

USA.gov is the U.S. government's official web portal to all federal, state and local government web resources and services.